sensor_id;sensor_type;location;lat;lon;timestamp;P1;durP1;ratioP1;P2;durP2;ratioP2
49237;SDS011;35069;47.906;1.892;2023-02-01T00:10:58;12.10;;;4.15;;
49237;SDS011;35069;47.906;1.892;2023-02-01T00:13:39;16.23;;;3.78;;
49237;SDS011;35069;47.906;1.892;2023-02-01T00:16:22;14.35;;;4.57;;
49237;SDS011;35069;47.906;1.892;2023-02-01T00:19:05;16.77;;;3.95;;
49237;SDS011;35069;47.906;1.892;2023-02-01T00:22:11;15.55;;;4.53;;
49237;SDS011;35069;47.906;1.892;2023-02-01T00:25:04;14.68;;;5.72;;
49237;SDS011;35069;47.906;1.892;2023-02-01T00:28:13;12.68;;;4.78;;
49237;SDS011;35069;47.906;1.892;2023-02-01T00:30:55;14.05;;;5.25;;
49237;SDS011;35069;47.906;1.892;2023-02-01T00:33:32;17.75;;;3.78;;
49237;SDS011;35069;47.906;1.892;2023-02-01T00:36:11;14.00;;;4.22;;
49237;SDS011;35069;47.906;1.892;2023-02-01T00:39:06;11.52;;;4.13;;
49237;SDS011;35069;47.906;1.892;2023-02-01T00:41:48;12.60;;;4.28;;
49237;SDS011;35069;47.906;1.892;2023-02-01T00:44:22;15.82;;;4.60;;
49237;SDS011;35069;47.906;1.892;2023-02-01T01:26:27;15.10;;;4.13;;
49237;SDS011;35069;47.906;1.892;2023-02-01T01:28:57;16.30;;;4.40;;
49237;SDS011;35069;47.906;1.892;2023-02-01T01:34:19;12.32;;;4.35;;
49237;SDS011;35069;47.906;1.892;2023-02-01T01:37:28;17.20;;;4.35;;
49237;SDS011;35069;47.906;1.892;2023-02-01T01:40:02;9.63;;;4.32;;
49237;SDS011;35069;47.906;1.892;2023-02-01T01:42:37;13.80;;;4.47;;
49237;SDS011;35069;47.906;1.892;2023-02-01T01:47:46;21.50;;;5.97;;
49237;SDS011;35069;47.906;1.892;2023-02-01T01:50:18;15.00;;;5.20;;
49237;SDS011;35069;47.906;1.892;2023-02-01T01:52:55;13.43;;;4.15;;
49237;SDS011;35069;47.906;1.892;2023-02-01T01:55:28;20.15;;;5.00;;
49237;SDS011;35069;47.906;1.892;2023-02-01T02:00:40;11.00;;;4.18;;
49237;SDS011;35069;47.906;1.892;2023-02-01T02:06:12;14.80;;;4.32;;
49237;SDS011;35069;47.906;1.892;2023-02-01T02:09:13;18.38;;;4.10;;
49237;SDS011;35069;47.906;1.892;2023-02-01T02:12:12;10.27;;;3.90;;
49237;SDS011;35069;47.906;1.892;2023-02-01T02:14:43;14.45;;;4.28;;
49237;SDS011;35069;47.906;1.892;2023-02-01T02:20:14;9.98;;;4.07;;
49237;SDS011;35069;47.906;1.892;2023-02-01T02:32:12;14.57;;;3.70;;
49237;SDS011;35069;47.906;1.892;2023-02-01T02:37:38;21.33;;;4.10;;
49237;SDS011;35069;47.906;1.892;2023-02-01T02:43:01;9.27;;;4.25;;
49237;SDS011;35069;47.906;1.892;2023-02-01T02:46:22;12.07;;;4.03;;
49237;SDS011;35069;47.906;1.892;2023-02-01T02:49:19;15.70;;;4.53;;
49237;SDS011;35069;47.906;1.892;2023-02-01T02:52:32;19.20;;;5.95;;
49237;SDS011;35069;47.906;1.892;2023-02-01T02:55:26;15.40;;;4.15;;
49237;SDS011;35069;47.906;1.892;2023-02-01T02:57:57;15.93;;;5.00;;
49237;SDS011;35069;47.906;1.892;2023-02-01T03:00:42;24.23;;;6.05;;
49237;SDS011;35069;47.906;1.892;2023-02-01T03:03:38;16.23;;;4.95;;
49237;SDS011;35069;47.906;1.892;2023-02-01T03:06:26;14.30;;;4.70;;
49237;SDS011;35069;47.906;1.892;2023-02-01T03:09:05;13.23;;;4.93;;
49237;SDS011;35069;47.906;1.892;2023-02-01T03:12:11;18.17;;;4.47;;
49237;SDS011;35069;47.906;1.892;2023-02-01T03:15:33;10.50;;;4.35;;
49237;SDS011;35069;47.906;1.892;2023-02-01T03:18:15;12.15;;;4.95;;
49237;SDS011;35069;47.906;1.892;2023-02-01T03:20:46;11.43;;;4.53;;
49237;SDS011;35069;47.906;1.892;2023-02-01T03:23:32;12.70;;;4.50;;
49237;SDS011;35069;47.906;1.892;2023-02-01T03:26:09;12.30;;;4.35;;
49237;SDS011;35069;47.906;1.892;2023-02-01T03:28:46;9.52;;;4.22;;
49237;SDS011;35069;47.906;1.892;2023-02-01T03:31:22;16.83;;;5.25;;
49237;SDS011;35069;47.906;1.892;2023-02-01T03:33:50;10.63;;;5.20;;
49237;SDS011;35069;47.906;1.892;2023-02-01T03:36:31;9.32;;;4.38;;
49237;SDS011;35069;47.906;1.892;2023-02-01T03:41:50;14.93;;;4.78;;
49237;SDS011;35069;47.906;1.892;2023-02-01T03:44:32;13.93;;;4.30;;
49237;SDS011;35069;47.906;1.892;2023-02-01T03:47:27;12.93;;;4.43;;
49237;SDS011;35069;47.906;1.892;2023-02-01T03:49:57;10.35;;;4.35;;
49237;SDS011;35069;47.906;1.892;2023-02-01T03:52:48;13.77;;;5.15;;
49237;SDS011;35069;47.906;1.892;2023-02-01T03:55:32;18.40;;;4.82;;
49237;SDS011;35069;47.906;1.892;2023-02-01T03:58:08;16.40;;;5.25;;
49237;SDS011;35069;47.906;1.892;2023-02-01T04:00:35;14.60;;;4.20;;
49237;SDS011;35069;47.906;1.892;2023-02-01T04:03:02;22.95;;;4.93;;
49237;SDS011;35069;47.906;1.892;2023-02-01T04:05:38;9.40;;;4.78;;
49237;SDS011;35069;47.906;1.892;2023-02-01T04:08:05;15.38;;;4.60;;
49237;SDS011;35069;47.906;1.892;2023-02-01T04:10:34;17.95;;;5.57;;
49237;SDS011;35069;47.906;1.892;2023-02-01T04:13:08;16.10;;;4.63;;
49237;SDS011;35069;47.906;1.892;2023-02-01T04:16:00;9.98;;;3.90;;
49237;SDS011;35069;47.906;1.892;2023-02-01T04:31:44;14.13;;;3.53;;
49237;SDS011;35069;47.906;1.892;2023-02-01T04:41:33;13.40;;;4.28;;
49237;SDS011;35069;47.906;1.892;2023-02-01T04:43:59;14.50;;;3.05;;
49237;SDS011;35069;47.906;1.892;2023-02-01T04:46:27;11.43;;;4.70;;
49237;SDS011;35069;47.906;1.892;2023-02-01T04:56:16;12.35;;;3.10;;
49237;SDS011;35069;47.906;1.892;2023-02-01T04:58:49;7.97;;;3.42;;
49237;SDS011;35069;47.906;1.892;2023-02-01T05:01:20;15.00;;;3.97;;
49237;SDS011;35069;47.906;1.892;2023-02-01T05:32:58;11.00;;;2.78;;
49237;SDS011;35069;47.906;1.892;2023-02-01T05:39:14;8.13;;;2.78;;
49237;SDS011;35069;47.906;1.892;2023-02-01T05:45:57;9.95;;;3.55;;
49237;SDS011;35069;47.906;1.892;2023-02-01T05:49:12;20.65;;;4.15;;
49237;SDS011;35069;47.906;1.892;2023-02-01T05:52:27;9.45;;;2.45;;
49237;SDS011;35069;47.906;1.892;2023-02-01T05:54:52;16.80;;;2.47;;
49237;SDS011;35069;47.906;1.892;2023-02-01T05:57:18;15.25;;;3.67;;
49237;SDS011;35069;47.906;1.892;2023-02-01T05:59:43;10.77;;;3.42;;
49237;SDS011;35069;47.906;1.892;2023-02-01T06:02:11;8.68;;;3.17;;
49237;SDS011;35069;47.906;1.892;2023-02-01T06:05:12;18.38;;;3.38;;
49237;SDS011;35069;47.906;1.892;2023-02-01T06:07:42;11.63;;;2.60;;
49237;SDS011;35069;47.906;1.892;2023-02-01T06:17:21;16.33;;;4.97;;
49237;SDS011;35069;47.906;1.892;2023-02-01T06:20:10;12.70;;;2.40;;
49237;SDS011;35069;47.906;1.892;2023-02-01T06:22:37;22.02;;;5.30;;
49237;SDS011;35069;47.906;1.892;2023-02-01T06:25:06;13.20;;;3.35;;
49237;SDS011;35069;47.906;1.892;2023-02-01T06:27:43;12.93;;;3.05;;
49237;SDS011;35069;47.906;1.892;2023-02-01T06:30:10;10.57;;;2.90;;
49237;SDS011;35069;47.906;1.892;2023-02-01T06:32:39;13.75;;;3.15;;
49237;SDS011;35069;47.906;1.892;2023-02-01T06:35:06;20.70;;;3.83;;
49237;SDS011;35069;47.906;1.892;2023-02-01T06:37:33;19.63;;;3.13;;
49237;SDS011;35069;47.906;1.892;2023-02-01T06:39:59;13.43;;;4.05;;
49237;SDS011;35069;47.906;1.892;2023-02-01T06:42:25;21.25;;;4.85;;
49237;SDS011;35069;47.906;1.892;2023-02-01T06:44:50;13.60;;;4.18;;
49237;SDS011;35069;47.906;1.892;2023-02-01T06:47:16;17.50;;;3.75;;
49237;SDS011;35069;47.906;1.892;2023-02-01T06:49:42;28.90;;;5.55;;
49237;SDS011;35069;47.906;1.892;2023-02-01T06:52:07;9.77;;;3.28;;
49237;SDS011;35069;47.906;1.892;2023-02-01T06:54:33;20.88;;;4.53;;
49237;SDS011;35069;47.906;1.892;2023-02-01T06:56:59;11.57;;;3.80;;
49237;SDS011;35069;47.906;1.892;2023-02-01T06:59:24;24.50;;;3.92;;
49237;SDS011;35069;47.906;1.892;2023-02-01T07:01:50;11.45;;;3.17;;
49237;SDS011;35069;47.906;1.892;2023-02-01T07:04:16;23.77;;;4.70;;
49237;SDS011;35069;47.906;1.892;2023-02-01T07:06:41;14.18;;;3.22;;
49237;SDS011;35069;47.906;1.892;2023-02-01T07:09:07;26.42;;;4.00;;
49237;SDS011;35069;47.906;1.892;2023-02-01T07:11:33;19.05;;;4.10;;
49237;SDS011;35069;47.906;1.892;2023-02-01T07:13:59;15.95;;;3.42;;
49237;SDS011;35069;47.906;1.892;2023-02-01T07:16:25;13.18;;;2.70;;
49237;SDS011;35069;47.906;1.892;2023-02-01T07:18:51;21.98;;;5.38;;
49237;SDS011;35069;47.906;1.892;2023-02-01T07:21:18;20.35;;;4.22;;
49237;SDS011;35069;47.906;1.892;2023-02-01T07:23:44;19.60;;;3.60;;
49237;SDS011;35069;47.906;1.892;2023-02-01T07:26:10;17.42;;;4.80;;
49237;SDS011;35069;47.906;1.892;2023-02-01T07:28:38;19.88;;;6.28;;
49237;SDS011;35069;47.906;1.892;2023-02-01T07:31:05;11.77;;;3.95;;
49237;SDS011;35069;47.906;1.892;2023-02-01T07:33:32;17.85;;;5.30;;
49237;SDS011;35069;47.906;1.892;2023-02-01T07:35:59;14.55;;;3.67;;
49237;SDS011;35069;47.906;1.892;2023-02-01T07:38:26;29.35;;;4.47;;
49237;SDS011;35069;47.906;1.892;2023-02-01T07:40:56;19.40;;;5.07;;
49237;SDS011;35069;47.906;1.892;2023-02-01T07:43:23;18.60;;;4.53;;
49237;SDS011;35069;47.906;1.892;2023-02-01T07:45:51;14.75;;;3.95;;
49237;SDS011;35069;47.906;1.892;2023-02-01T07:48:18;17.30;;;4.35;;
49237;SDS011;35069;47.906;1.892;2023-02-01T07:50:45;25.23;;;5.47;;
49237;SDS011;35069;47.906;1.892;2023-02-01T07:53:10;16.63;;;4.95;;
49237;SDS011;35069;47.906;1.892;2023-02-01T07:55:40;12.10;;;4.38;;
49237;SDS011;35069;47.906;1.892;2023-02-01T07:58:06;17.55;;;4.40;;
49237;SDS011;35069;47.906;1.892;2023-02-01T08:00:32;17.15;;;5.35;;
49237;SDS011;35069;47.906;1.892;2023-02-01T08:03:16;20.02;;;4.72;;
49237;SDS011;35069;47.906;1.892;2023-02-01T08:05:41;15.57;;;4.85;;
49237;SDS011;35069;47.906;1.892;2023-02-01T08:08:08;15.80;;;4.38;;
49237;SDS011;35069;47.906;1.892;2023-02-01T08:10:34;20.95;;;4.50;;
49237;SDS011;35069;47.906;1.892;2023-02-01T08:13:00;16.95;;;4.22;;
49237;SDS011;35069;47.906;1.892;2023-02-01T08:15:27;22.92;;;3.75;;
49237;SDS011;35069;47.906;1.892;2023-02-01T08:17:54;18.13;;;4.18;;
49237;SDS011;35069;47.906;1.892;2023-02-01T08:20:20;12.82;;;4.57;;
49237;SDS011;35069;47.906;1.892;2023-02-01T08:22:48;13.57;;;4.93;;
49237;SDS011;35069;47.906;1.892;2023-02-01T08:25:15;14.40;;;5.05;;
49237;SDS011;35069;47.906;1.892;2023-02-01T08:27:40;21.25;;;5.55;;
49237;SDS011;35069;47.906;1.892;2023-02-01T08:30:06;10.27;;;3.42;;
49237;SDS011;35069;47.906;1.892;2023-02-01T08:32:33;16.23;;;4.28;;
49237;SDS011;35069;47.906;1.892;2023-02-01T08:35:00;17.85;;;4.00;;
49237;SDS011;35069;47.906;1.892;2023-02-01T08:37:26;17.30;;;5.20;;
49237;SDS011;35069;47.906;1.892;2023-02-01T08:39:51;15.38;;;4.32;;
49237;SDS011;35069;47.906;1.892;2023-02-01T08:42:17;19.60;;;4.13;;
49237;SDS011;35069;47.906;1.892;2023-02-01T08:45:02;22.73;;;5.65;;
49237;SDS011;35069;47.906;1.892;2023-02-01T08:47:29;17.80;;;4.15;;
49237;SDS011;35069;47.906;1.892;2023-02-01T08:49:55;18.00;;;4.32;;
49237;SDS011;35069;47.906;1.892;2023-02-01T08:52:21;17.10;;;3.67;;
49237;SDS011;35069;47.906;1.892;2023-02-01T08:54:47;15.15;;;3.40;;
49237;SDS011;35069;47.906;1.892;2023-02-01T08:57:12;22.13;;;3.78;;
49237;SDS011;35069;47.906;1.892;2023-02-01T08:59:38;18.90;;;3.83;;
49237;SDS011;35069;47.906;1.892;2023-02-01T09:02:04;21.35;;;3.50;;
49237;SDS011;35069;47.906;1.892;2023-02-01T09:04:30;16.00;;;3.90;;
49237;SDS011;35069;47.906;1.892;2023-02-01T09:06:55;12.50;;;4.45;;
49237;SDS011;35069;47.906;1.892;2023-02-01T09:09:21;18.70;;;4.75;;
49237;SDS011;35069;47.906;1.892;2023-02-01T09:11:47;21.50;;;4.10;;
49237;SDS011;35069;47.906;1.892;2023-02-01T09:14:15;10.60;;;2.65;;
49237;SDS011;35069;47.906;1.892;2023-02-01T09:16:41;18.88;;;4.28;;
49237;SDS011;35069;47.906;1.892;2023-02-01T09:19:06;13.90;;;2.75;;
49237;SDS011;35069;47.906;1.892;2023-02-01T09:21:32;11.80;;;3.30;;
49237;SDS011;35069;47.906;1.892;2023-02-01T09:23:57;15.93;;;3.97;;
49237;SDS011;35069;47.906;1.892;2023-02-01T09:26:23;11.43;;;3.90;;
49237;SDS011;35069;47.906;1.892;2023-02-01T09:28:50;16.00;;;3.88;;
49237;SDS011;35069;47.906;1.892;2023-02-01T09:31:16;18.08;;;4.22;;
49237;SDS011;35069;47.906;1.892;2023-02-01T09:33:41;19.80;;;4.13;;
49237;SDS011;35069;47.906;1.892;2023-02-01T09:36:07;22.42;;;4.60;;
49237;SDS011;35069;47.906;1.892;2023-02-01T09:38:33;18.30;;;5.43;;
49237;SDS011;35069;47.906;1.892;2023-02-01T09:40:59;16.23;;;7.45;;
49237;SDS011;35069;47.906;1.892;2023-02-01T09:48:34;22.42;;;6.15;;
49237;SDS011;35069;47.906;1.892;2023-02-01T09:51:04;22.10;;;6.35;;
49237;SDS011;35069;47.906;1.892;2023-02-01T09:53:38;10.98;;;4.38;;
49237;SDS011;35069;47.906;1.892;2023-02-01T09:56:11;19.23;;;4.30;;
49237;SDS011;35069;47.906;1.892;2023-02-01T10:01:50;12.85;;;4.65;;
49237;SDS011;35069;47.906;1.892;2023-02-01T10:04:15;12.52;;;4.85;;
49237;SDS011;35069;47.906;1.892;2023-02-01T10:12:30;14.73;;;5.68;;
49237;SDS011;35069;47.906;1.892;2023-02-01T10:15:21;21.25;;;4.82;;
49237;SDS011;35069;47.906;1.892;2023-02-01T10:23:43;19.90;;;4.47;;
49237;SDS011;35069;47.906;1.892;2023-02-01T10:28:50;18.05;;;3.63;;
49237;SDS011;35069;47.906;1.892;2023-02-01T10:31:16;22.80;;;5.32;;
49237;SDS011;35069;47.906;1.892;2023-02-01T10:33:44;25.08;;;4.55;;
49237;SDS011;35069;47.906;1.892;2023-02-01T10:36:16;14.93;;;4.75;;
49237;SDS011;35069;47.906;1.892;2023-02-01T10:38:46;13.50;;;4.82;;
49237;SDS011;35069;47.906;1.892;2023-02-01T10:41:14;20.75;;;4.03;;
49237;SDS011;35069;47.906;1.892;2023-02-01T10:43:42;16.02;;;4.13;;
49237;SDS011;35069;47.906;1.892;2023-02-01T10:46:09;14.93;;;3.97;;
49237;SDS011;35069;47.906;1.892;2023-02-01T10:48:35;11.75;;;3.28;;
49237;SDS011;35069;47.906;1.892;2023-02-01T10:51:07;14.48;;;4.00;;
49237;SDS011;35069;47.906;1.892;2023-02-01T10:53:53;17.05;;;4.28;;
49237;SDS011;35069;47.906;1.892;2023-02-01T10:56:28;18.80;;;3.28;;
49237;SDS011;35069;47.906;1.892;2023-02-01T10:59:04;10.40;;;4.30;;
49237;SDS011;35069;47.906;1.892;2023-02-01T11:01:39;14.30;;;3.50;;
49237;SDS011;35069;47.906;1.892;2023-02-01T11:04:10;12.60;;;3.83;;
49237;SDS011;35069;47.906;1.892;2023-02-01T11:06:44;19.63;;;4.78;;
49237;SDS011;35069;47.906;1.892;2023-02-01T11:09:22;12.95;;;3.25;;
49237;SDS011;35069;47.906;1.892;2023-02-01T11:16:52;13.70;;;5.57;;
49237;SDS011;35069;47.906;1.892;2023-02-01T11:19:48;19.85;;;3.88;;
49237;SDS011;35069;47.906;1.892;2023-02-01T11:22:26;16.67;;;3.38;;
49237;SDS011;35069;47.906;1.892;2023-02-01T11:25:01;23.65;;;6.53;;
49237;SDS011;35069;47.906;1.892;2023-02-01T11:27:37;17.08;;;4.05;;
49237;SDS011;35069;47.906;1.892;2023-02-01T11:30:03;16.83;;;4.43;;
49237;SDS011;35069;47.906;1.892;2023-02-01T11:32:30;17.50;;;4.60;;
49237;SDS011;35069;47.906;1.892;2023-02-01T11:34:59;19.95;;;4.43;;
49237;SDS011;35069;47.906;1.892;2023-02-01T11:37:41;18.67;;;4.40;;
49237;SDS011;35069;47.906;1.892;2023-02-01T11:40:33;15.50;;;4.35;;
49237;SDS011;35069;47.906;1.892;2023-02-01T11:43:00;15.70;;;4.60;;
49237;SDS011;35069;47.906;1.892;2023-02-01T11:45:57;15.55;;;3.80;;
49237;SDS011;35069;47.906;1.892;2023-02-01T11:48:25;15.77;;;4.43;;
49237;SDS011;35069;47.906;1.892;2023-02-01T12:01:39;13.38;;;5.03;;
49237;SDS011;35069;47.906;1.892;2023-02-01T12:06:55;12.05;;;4.28;;
49237;SDS011;35069;47.906;1.892;2023-02-01T12:14:48;18.02;;;3.72;;
49237;SDS011;35069;47.906;1.892;2023-02-01T12:20:45;22.25;;;4.60;;
49237;SDS011;35069;47.906;1.892;2023-02-01T12:23:40;22.38;;;5.97;;
49237;SDS011;35069;47.906;1.892;2023-02-01T12:31:59;11.93;;;5.03;;
49237;SDS011;35069;47.906;1.892;2023-02-01T12:39:52;16.85;;;4.35;;
49237;SDS011;35069;47.906;1.892;2023-02-01T12:42:36;10.52;;;3.22;;
49237;SDS011;35069;47.906;1.892;2023-02-01T12:50:43;19.45;;;3.97;;
49237;SDS011;35069;47.906;1.892;2023-02-01T12:53:14;18.05;;;4.10;;
49237;SDS011;35069;47.906;1.892;2023-02-01T12:55:49;20.00;;;4.13;;
49237;SDS011;35069;47.906;1.892;2023-02-01T13:00:49;22.60;;;5.03;;
49237;SDS011;35069;47.906;1.892;2023-02-01T13:11:49;19.58;;;4.55;;
49237;SDS011;35069;47.906;1.892;2023-02-01T13:17:18;14.18;;;3.05;;
49237;SDS011;35069;47.906;1.892;2023-02-01T13:19:57;19.55;;;7.00;;
49237;SDS011;35069;47.906;1.892;2023-02-01T13:22:42;17.55;;;4.88;;
49237;SDS011;35069;47.906;1.892;2023-02-01T13:25:13;19.50;;;5.25;;
49237;SDS011;35069;47.906;1.892;2023-02-01T13:27:43;13.40;;;4.10;;
49237;SDS011;35069;47.906;1.892;2023-02-01T13:30:15;13.73;;;3.67;;
49237;SDS011;35069;47.906;1.892;2023-02-01T13:42:59;13.05;;;3.05;;
49237;SDS011;35069;47.906;1.892;2023-02-01T13:45:37;15.05;;;5.65;;
49237;SDS011;35069;47.906;1.892;2023-02-01T13:53:15;10.93;;;3.30;;
49237;SDS011;35069;47.906;1.892;2023-02-01T14:03:44;12.30;;;3.60;;
49237;SDS011;35069;47.906;1.892;2023-02-01T14:06:47;17.73;;;3.92;;
49237;SDS011;35069;47.906;1.892;2023-02-01T14:19:26;17.95;;;4.68;;
49237;SDS011;35069;47.906;1.892;2023-02-01T14:24:51;17.83;;;3.80;;
49237;SDS011;35069;47.906;1.892;2023-02-01T14:27:22;11.88;;;4.45;;
49237;SDS011;35069;47.906;1.892;2023-02-01T14:29:56;14.80;;;3.67;;
49237;SDS011;35069;47.906;1.892;2023-02-01T14:32:30;14.13;;;4.55;;
49237;SDS011;35069;47.906;1.892;2023-02-01T14:34:59;16.38;;;3.90;;
49237;SDS011;35069;47.906;1.892;2023-02-01T14:45:46;12.80;;;4.25;;
49237;SDS011;35069;47.906;1.892;2023-02-01T14:55:34;20.85;;;5.68;;
49237;SDS011;35069;47.906;1.892;2023-02-01T14:58:06;21.60;;;5.40;;
49237;SDS011;35069;47.906;1.892;2023-02-01T15:00:55;15.07;;;3.50;;
49237;SDS011;35069;47.906;1.892;2023-02-01T15:06:35;21.17;;;4.35;;
49237;SDS011;35069;47.906;1.892;2023-02-01T15:09:20;13.82;;;3.58;;
49237;SDS011;35069;47.906;1.892;2023-02-01T15:17:33;12.07;;;3.42;;
49237;SDS011;35069;47.906;1.892;2023-02-01T15:22:40;19.45;;;6.50;;
49237;SDS011;35069;47.906;1.892;2023-02-01T15:25:17;15.30;;;4.20;;
49237;SDS011;35069;47.906;1.892;2023-02-01T15:27:45;19.08;;;3.97;;
49237;SDS011;35069;47.906;1.892;2023-02-01T15:30:30;22.08;;;4.47;;
49237;SDS011;35069;47.906;1.892;2023-02-01T15:35:43;12.20;;;4.53;;
49237;SDS011;35069;47.906;1.892;2023-02-01T15:43:26;17.55;;;3.45;;
49237;SDS011;35069;47.906;1.892;2023-02-01T15:45:57;13.50;;;3.83;;
49237;SDS011;35069;47.906;1.892;2023-02-01T15:48:25;15.95;;;4.50;;
49237;SDS011;35069;47.906;1.892;2023-02-01T15:50:52;14.18;;;3.47;;
49237;SDS011;35069;47.906;1.892;2023-02-01T15:53:21;20.08;;;5.78;;
49237;SDS011;35069;47.906;1.892;2023-02-01T15:55:52;13.13;;;4.75;;
49237;SDS011;35069;47.906;1.892;2023-02-01T15:58:20;12.18;;;4.20;;
49237;SDS011;35069;47.906;1.892;2023-02-01T16:03:24;14.70;;;3.90;;
49237;SDS011;35069;47.906;1.892;2023-02-01T16:06:00;12.63;;;3.50;;
49237;SDS011;35069;47.906;1.892;2023-02-01T16:08:28;16.95;;;3.78;;
49237;SDS011;35069;47.906;1.892;2023-02-01T16:11:01;9.70;;;3.00;;
49237;SDS011;35069;47.906;1.892;2023-02-01T16:13:44;22.20;;;6.40;;
49237;SDS011;35069;47.906;1.892;2023-02-01T16:16:10;24.17;;;4.75;;
49237;SDS011;35069;47.906;1.892;2023-02-01T16:18:39;12.88;;;3.50;;
49237;SDS011;35069;47.906;1.892;2023-02-01T16:21:05;18.83;;;4.53;;
49237;SDS011;35069;47.906;1.892;2023-02-01T16:23:33;15.75;;;5.28;;
49237;SDS011;35069;47.906;1.892;2023-02-01T16:25:59;11.95;;;4.80;;
49237;SDS011;35069;47.906;1.892;2023-02-01T16:28:25;15.27;;;4.53;;
49237;SDS011;35069;47.906;1.892;2023-02-01T16:30:51;16.60;;;4.53;;
49237;SDS011;35069;47.906;1.892;2023-02-01T16:33:18;20.48;;;5.68;;
49237;SDS011;35069;47.906;1.892;2023-02-01T16:35:47;12.25;;;3.35;;
49237;SDS011;35069;47.906;1.892;2023-02-01T16:38:14;17.55;;;3.78;;
49237;SDS011;35069;47.906;1.892;2023-02-01T16:40:43;11.93;;;3.88;;
49237;SDS011;35069;47.906;1.892;2023-02-01T16:43:14;21.38;;;4.75;;
49237;SDS011;35069;47.906;1.892;2023-02-01T16:45:41;15.10;;;3.95;;
49237;SDS011;35069;47.906;1.892;2023-02-01T16:48:10;13.02;;;4.65;;
49237;SDS011;35069;47.906;1.892;2023-02-01T16:50:41;15.65;;;3.40;;
49237;SDS011;35069;47.906;1.892;2023-02-01T16:53:14;16.27;;;3.88;;
49237;SDS011;35069;47.906;1.892;2023-02-01T16:55:42;20.73;;;4.30;;
49237;SDS011;35069;47.906;1.892;2023-02-01T16:58:08;17.52;;;4.10;;
49237;SDS011;35069;47.906;1.892;2023-02-01T17:00:34;7.65;;;3.33;;
49237;SDS011;35069;47.906;1.892;2023-02-01T17:03:02;18.48;;;3.63;;
49237;SDS011;35069;47.906;1.892;2023-02-01T17:05:28;16.70;;;3.75;;
49237;SDS011;35069;47.906;1.892;2023-02-01T17:07:55;19.83;;;4.40;;
49237;SDS011;35069;47.906;1.892;2023-02-01T17:10:24;14.43;;;6.18;;
49237;SDS011;35069;47.906;1.892;2023-02-01T17:12:52;26.15;;;6.00;;
49237;SDS011;35069;47.906;1.892;2023-02-01T17:15:17;24.20;;;6.55;;
49237;SDS011;35069;47.906;1.892;2023-02-01T17:17:43;21.45;;;6.70;;
49237;SDS011;35069;47.906;1.892;2023-02-01T17:20:17;14.82;;;5.72;;
49237;SDS011;35069;47.906;1.892;2023-02-01T17:22:45;21.00;;;4.95;;
49237;SDS011;35069;47.906;1.892;2023-02-01T17:25:18;18.27;;;5.72;;
49237;SDS011;35069;47.906;1.892;2023-02-01T17:27:47;22.75;;;5.80;;
49237;SDS011;35069;47.906;1.892;2023-02-01T17:30:14;21.88;;;5.13;;
49237;SDS011;35069;47.906;1.892;2023-02-01T17:32:39;19.50;;;5.80;;
49237;SDS011;35069;47.906;1.892;2023-02-01T17:35:09;20.40;;;6.72;;
49237;SDS011;35069;47.906;1.892;2023-02-01T17:37:46;12.93;;;5.22;;
49237;SDS011;35069;47.906;1.892;2023-02-01T17:40:12;20.42;;;7.18;;
49237;SDS011;35069;47.906;1.892;2023-02-01T17:42:37;22.90;;;6.78;;
49237;SDS011;35069;47.906;1.892;2023-02-01T17:47:57;21.73;;;7.15;;
49237;SDS011;35069;47.906;1.892;2023-02-01T17:50:23;24.75;;;7.47;;
49237;SDS011;35069;47.906;1.892;2023-02-01T17:52:52;16.60;;;5.93;;
49237;SDS011;35069;47.906;1.892;2023-02-01T17:55:18;20.75;;;7.65;;
49237;SDS011;35069;47.906;1.892;2023-02-01T17:57:47;26.58;;;6.30;;
49237;SDS011;35069;47.906;1.892;2023-02-01T18:00:14;18.77;;;5.07;;
49237;SDS011;35069;47.906;1.892;2023-02-01T18:02:41;23.88;;;5.75;;
49237;SDS011;35069;47.906;1.892;2023-02-01T18:05:28;21.00;;;7.50;;
49237;SDS011;35069;47.906;1.892;2023-02-01T18:07:57;25.20;;;8.80;;
49237;SDS011;35069;47.906;1.892;2023-02-01T18:10:23;23.85;;;9.23;;
49237;SDS011;35069;47.906;1.892;2023-02-01T18:12:49;24.33;;;8.80;;
49237;SDS011;35069;47.906;1.892;2023-02-01T18:15:19;21.08;;;6.95;;
49237;SDS011;35069;47.906;1.892;2023-02-01T18:17:47;25.58;;;8.32;;
49237;SDS011;35069;47.906;1.892;2023-02-01T18:20:14;23.30;;;8.02;;
49237;SDS011;35069;47.906;1.892;2023-02-01T18:22:40;36.60;;;10.15;;
49237;SDS011;35069;47.906;1.892;2023-02-01T18:25:21;25.90;;;9.68;;
49237;SDS011;35069;47.906;1.892;2023-02-01T18:27:49;24.00;;;8.20;;
49237;SDS011;35069;47.906;1.892;2023-02-01T18:30:16;25.70;;;10.18;;
49237;SDS011;35069;47.906;1.892;2023-02-01T18:32:43;26.67;;;9.30;;
49237;SDS011;35069;47.906;1.892;2023-02-01T18:35:28;22.83;;;7.93;;
49237;SDS011;35069;47.906;1.892;2023-02-01T18:37:56;24.67;;;9.35;;
49237;SDS011;35069;47.906;1.892;2023-02-01T18:42:49;20.27;;;5.93;;
49237;SDS011;35069;47.906;1.892;2023-02-01T18:47:59;23.08;;;8.10;;
49237;SDS011;35069;47.906;1.892;2023-02-01T18:50:25;21.58;;;8.32;;
49237;SDS011;35069;47.906;1.892;2023-02-01T18:52:54;17.98;;;5.22;;
49237;SDS011;35069;47.906;1.892;2023-02-01T18:55:21;19.90;;;7.05;;
49237;SDS011;35069;47.906;1.892;2023-02-01T18:57:48;27.88;;;6.82;;
49237;SDS011;35069;47.906;1.892;2023-02-01T19:00:14;28.63;;;5.88;;
49237;SDS011;35069;47.906;1.892;2023-02-01T19:02:40;30.77;;;7.43;;
49237;SDS011;35069;47.906;1.892;2023-02-01T19:05:07;17.33;;;6.28;;
49237;SDS011;35069;47.906;1.892;2023-02-01T19:07:35;23.60;;;6.60;;
49237;SDS011;35069;47.906;1.892;2023-02-01T19:10:02;26.15;;;8.40;;
49237;SDS011;35069;47.906;1.892;2023-02-01T19:12:30;21.40;;;6.88;;
49237;SDS011;35069;47.906;1.892;2023-02-01T19:14:58;19.45;;;7.28;;
49237;SDS011;35069;47.906;1.892;2023-02-01T19:17:23;31.10;;;7.45;;
49237;SDS011;35069;47.906;1.892;2023-02-01T19:19:49;22.30;;;7.25;;
49237;SDS011;35069;47.906;1.892;2023-02-01T19:22:15;18.48;;;7.65;;
49237;SDS011;35069;47.906;1.892;2023-02-01T19:24:42;18.58;;;7.00;;
49237;SDS011;35069;47.906;1.892;2023-02-01T19:27:07;24.83;;;7.75;;
49237;SDS011;35069;47.906;1.892;2023-02-01T19:29:34;18.83;;;6.95;;
49237;SDS011;35069;47.906;1.892;2023-02-01T19:32:02;16.92;;;7.18;;
49237;SDS011;35069;47.906;1.892;2023-02-01T19:34:28;24.40;;;7.32;;
49237;SDS011;35069;47.906;1.892;2023-02-01T19:36:54;20.42;;;8.13;;
49237;SDS011;35069;47.906;1.892;2023-02-01T19:39:20;25.08;;;8.55;;
49237;SDS011;35069;47.906;1.892;2023-02-01T19:41:46;22.25;;;9.65;;
49237;SDS011;35069;47.906;1.892;2023-02-01T19:44:12;23.88;;;7.50;;
49237;SDS011;35069;47.906;1.892;2023-02-01T19:46:38;30.90;;;8.25;;
49237;SDS011;35069;47.906;1.892;2023-02-01T19:49:04;22.95;;;7.95;;
49237;SDS011;35069;47.906;1.892;2023-02-01T19:51:32;23.85;;;7.43;;
49237;SDS011;35069;47.906;1.892;2023-02-01T19:53:58;17.52;;;7.10;;
49237;SDS011;35069;47.906;1.892;2023-02-01T19:56:24;29.33;;;8.07;;
49237;SDS011;35069;47.906;1.892;2023-02-01T19:58:50;25.58;;;6.72;;
49237;SDS011;35069;47.906;1.892;2023-02-01T20:01:15;32.90;;;9.93;;
49237;SDS011;35069;47.906;1.892;2023-02-01T20:03:43;18.15;;;7.60;;
49237;SDS011;35069;47.906;1.892;2023-02-01T20:06:11;22.33;;;6.43;;
49237;SDS011;35069;47.906;1.892;2023-02-01T20:08:37;14.88;;;6.18;;
49237;SDS011;35069;47.906;1.892;2023-02-01T20:11:05;23.95;;;8.13;;
49237;SDS011;35069;47.906;1.892;2023-02-01T20:13:31;18.67;;;6.30;;
49237;SDS011;35069;47.906;1.892;2023-02-01T20:15:59;18.20;;;5.63;;
49237;SDS011;35069;47.906;1.892;2023-02-01T20:18:25;22.60;;;6.15;;
49237;SDS011;35069;47.906;1.892;2023-02-01T20:20:58;18.58;;;6.47;;